createdAt,value
2018-07-21T00:07:43.862Z,17.40
2018-07-21T00:17:45.160Z,17.40
2018-07-21T00:27:47.195Z,17.10
2018-07-21T00:47:57.535Z,16.90
2018-07-21T00:57:58.781Z,16.80
2018-07-21T01:08:00.035Z,16.70
2018-07-21T01:18:02.119Z,16.60
2018-07-21T01:28:03.381Z,16.60
2018-07-21T01:38:04.692Z,16.70
2018-07-21T01:48:05.935Z,16.40
2018-07-21T01:58:08.248Z,16.40
2018-07-21T02:08:09.510Z,16.30
2018-07-21T02:18:10.783Z,16.20
2018-07-21T02:28:12.051Z,16.10
2018-07-21T02:38:14.109Z,16.00
2018-07-21T02:48:15.400Z,15.90
2018-07-21T02:58:16.702Z,15.90
2018-07-21T03:08:17.955Z,15.90
2018-07-21T03:18:20.002Z,15.80
2018-07-21T03:28:21.301Z,15.80
2018-07-21T03:38:22.537Z,15.80
2018-07-21T03:48:24.628Z,15.90
2018-07-21T03:58:25.886Z,15.90
2018-07-21T04:08:27.153Z,16.00
2018-07-21T04:28:36.097Z,16.60
2018-07-21T04:38:38.104Z,18.10
2018-07-21T04:48:39.341Z,18.10
2018-07-21T04:58:46.308Z,18.20
2018-07-21T05:08:47.553Z,18.60
2018-07-21T05:18:48.802Z,18.90
2018-07-21T05:28:50.080Z,19.30
2018-07-21T05:38:51.346Z,19.70
2018-07-21T05:48:52.625Z,20.00
2018-07-21T06:09:05.053Z,20.80
2018-07-21T06:19:06.323Z,21.60
2018-07-21T06:29:07.624Z,21.70
2018-07-21T06:39:09.965Z,21.90
2018-07-21T06:49:12.000Z,24.30
2018-07-21T06:59:16.349Z,24.80
2018-07-21T07:09:17.601Z,24.80
2018-07-21T07:19:18.876Z,25.90
2018-07-21T07:29:20.154Z,26.00
2018-07-21T07:39:21.435Z,26.40
2018-07-21T07:49:23.466Z,30.30
2018-07-21T07:59:24.755Z,30.10
2018-07-21T08:09:26.026Z,31.70
2018-07-21T08:19:27.356Z,33.40
2018-07-21T08:29:28.591Z,29.20
2018-07-21T08:39:29.850Z,28.40
2018-07-21T08:49:31.145Z,31.70
2018-07-21T09:19:46.713Z,29.80
2018-07-21T09:29:48.026Z,27.90
2018-07-21T09:39:49.286Z,26.60
2018-07-21T09:49:50.571Z,26.00
2018-07-21T09:59:52.628Z,25.10
2018-07-21T10:09:53.956Z,25.10
2018-07-21T10:19:55.224Z,30.20
2018-07-21T10:29:56.499Z,33.80
2018-07-21T10:39:57.770Z,35.30
2018-07-21T10:49:59.810Z,30.40
2018-07-21T11:00:01.110Z,30.40
2018-07-21T11:10:02.408Z,29.90
2018-07-21T11:20:03.675Z,30.00
2018-07-21T11:30:04.952Z,30.00
2018-07-21T11:40:06.221Z,29.90
2018-07-21T11:50:07.515Z,29.40
2018-07-21T12:00:08.809Z,29.90
2018-07-21T12:10:10.089Z,28.60
2018-07-21T12:20:11.406Z,29.10
2018-07-21T12:30:12.645Z,28.70
2018-07-21T12:40:14.024Z,28.10
2018-07-21T12:50:15.228Z,26.80
2018-07-21T13:00:16.502Z,24.60
2018-07-21T13:10:17.778Z,22.70
2018-07-21T13:20:19.049Z,22.10
2018-07-21T13:30:20.303Z,21.80
2018-07-21T13:40:22.402Z,23.40
2018-07-21T13:50:23.674Z,23.30
2018-07-21T14:10:33.065Z,24.10
2018-07-21T14:20:34.310Z,22.70
2018-07-21T14:30:35.607Z,21.50
2018-07-21T14:40:36.953Z,20.80
2018-07-21T14:50:38.245Z,20.60
2018-07-21T15:20:52.937Z,20.60
2018-07-21T15:30:54.174Z,20.70
2018-07-21T15:51:02.263Z,21.10
2018-07-21T16:01:04.292Z,20.50
2018-07-21T16:21:12.254Z,20.50
2018-07-21T16:31:13.538Z,20.50
2018-07-21T16:41:14.779Z,20.50
2018-07-21T16:51:16.811Z,20.30
2018-07-21T17:01:18.115Z,20.30
2018-07-21T17:11:19.628Z,20.30
2018-07-21T17:21:21.746Z,19.90
2018-07-21T17:31:23.025Z,19.90
2018-07-21T17:41:24.329Z,19.60
2018-07-21T17:51:26.367Z,19.10
2018-07-21T18:01:32.723Z,19.10
2018-07-21T18:11:34.796Z,18.70
2018-07-21T18:21:36.052Z,18.60
2018-07-21T18:31:37.348Z,18.90
2018-07-21T18:41:45.046Z,18.60
2018-07-21T18:51:46.302Z,18.50
2018-07-21T19:01:47.571Z,18.40
2018-07-21T19:11:49.584Z,18.40
2018-07-21T19:21:51.603Z,18.40
2018-07-21T19:31:53.705Z,18.50
2018-07-21T19:41:54.897Z,18.50
2018-07-21T19:52:00.672Z,18.50
2018-07-21T20:02:02.592Z,18.50
2018-07-21T20:12:03.930Z,18.50
2018-07-21T20:22:05.672Z,18.60
2018-07-21T20:32:06.990Z,18.50
2018-07-21T20:52:17.473Z,18.30
2018-07-21T21:02:18.751Z,18.50
2018-07-21T21:12:22.191Z,18.50
2018-07-21T21:22:23.443Z,18.70
2018-07-21T21:32:25.553Z,18.40
2018-07-21T21:42:27.714Z,18.10
2018-07-21T21:52:28.988Z,18.10
2018-07-21T22:12:38.693Z,18.00
2018-07-21T22:22:39.958Z,18.10
2018-07-21T22:32:41.228Z,18.30
2018-07-21T22:42:42.493Z,18.50
2018-07-21T22:52:43.796Z,18.40
2018-07-21T23:02:45.830Z,18.30
2018-07-21T23:12:47.093Z,18.40
2018-07-21T23:22:48.352Z,18.30
2018-07-21T23:32:49.626Z,18.20
2018-07-21T23:42:50.885Z,18.10
2018-07-21T23:52:52.146Z,17.90
